sensor_id;sensor_type;location;lat;lon;timestamp;temperature;humidity
47600;DHT22;33323;52.124;6.018;2024-03-25T00:01:48;4.60;99.90
47600;DHT22;33323;52.124;6.018;2024-03-25T00:04:14;4.60;99.90
47600;DHT22;33323;52.124;6.018;2024-03-25T00:06:40;4.50;99.90
47600;DHT22;33323;52.124;6.018;2024-03-25T00:09:06;4.50;99.90
47600;DHT22;33323;52.124;6.018;2024-03-25T00:11:33;4.40;99.90
47600;DHT22;33323;52.124;6.018;2024-03-25T00:13:59;4.40;99.90
47600;DHT22;33323;52.124;6.018;2024-03-25T00:16:25;4.40;99.90
47600;DHT22;33323;52.124;6.018;2024-03-25T00:18:51;4.30;99.90
47600;DHT22;33323;52.124;6.018;2024-03-25T00:21:17;4.30;99.90
47600;DHT22;33323;52.124;6.018;2024-03-25T00:23:43;4.20;99.90
47600;DHT22;33323;52.124;6.018;2024-03-25T00:26:10;4.20;99.90
47600;DHT22;33323;52.124;6.018;2024-03-25T00:28:36;4.10;99.90
47600;DHT22;33323;52.124;6.018;2024-03-25T00:31:02;4.10;99.90
47600;DHT22;33323;52.124;6.018;2024-03-25T00:33:29;4.10;99.90
47600;DHT22;33323;52.124;6.018;2024-03-25T00:35:55;4.10;99.90
47600;DHT22;33323;52.124;6.018;2024-03-25T00:38:21;4.10;99.90
47600;DHT22;33323;52.124;6.018;2024-03-25T00:40:47;4.10;99.90
47600;DHT22;33323;52.124;6.018;2024-03-25T00:43:13;4.10;99.90
47600;DHT22;33323;52.124;6.018;2024-03-25T00:45:40;4.10;99.90
47600;DHT22;33323;52.124;6.018;2024-03-25T00:48:06;4.00;99.90
47600;DHT22;33323;52.124;6.018;2024-03-25T00:50:32;4.00;99.90
47600;DHT22;33323;52.124;6.018;2024-03-25T00:52:58;4.00;99.90
47600;DHT22;33323;52.124;6.018;2024-03-25T00:55:25;3.90;99.90
47600;DHT22;33323;52.124;6.018;2024-03-25T00:57:51;3.90;99.90
47600;DHT22;33323;52.124;6.018;2024-03-25T01:00:17;3.90;99.90
47600;DHT22;33323;52.124;6.018;2024-03-25T01:02:43;3.90;99.90
47600;DHT22;33323;52.124;6.018;2024-03-25T01:05:10;4.00;99.90
47600;DHT22;33323;52.124;6.018;2024-03-25T01:07:36;3.90;99.90
47600;DHT22;33323;52.124;6.018;2024-03-25T01:10:02;3.80;99.90
47600;DHT22;33323;52.124;6.018;2024-03-25T01:12:28;3.80;99.90
47600;DHT22;33323;52.124;6.018;2024-03-25T01:14:54;3.80;99.90
47600;DHT22;33323;52.124;6.018;2024-03-25T01:17:20;3.70;99.90
47600;DHT22;33323;52.124;6.018;2024-03-25T01:19:46;3.70;99.90
47600;DHT22;33323;52.124;6.018;2024-03-25T01:22:12;3.60;99.90
47600;DHT22;33323;52.124;6.018;2024-03-25T01:24:38;3.60;99.90
47600;DHT22;33323;52.124;6.018;2024-03-25T01:27:04;3.60;99.90
47600;DHT22;33323;52.124;6.018;2024-03-25T01:29:30;3.50;99.90
47600;DHT22;33323;52.124;6.018;2024-03-25T01:31:56;3.50;99.90
47600;DHT22;33323;52.124;6.018;2024-03-25T01:34:25;3.50;99.90
47600;DHT22;33323;52.124;6.018;2024-03-25T01:36:51;3.50;99.90
47600;DHT22;33323;52.124;6.018;2024-03-25T01:39:20;3.40;99.90
47600;DHT22;33323;52.124;6.018;2024-03-25T01:41:46;3.40;99.90
47600;DHT22;33323;52.124;6.018;2024-03-25T01:44:12;3.50;99.90
47600;DHT22;33323;52.124;6.018;2024-03-25T01:46:38;3.40;99.90
47600;DHT22;33323;52.124;6.018;2024-03-25T01:49:05;3.50;99.90
47600;DHT22;33323;52.124;6.018;2024-03-25T01:51:33;3.50;99.90
47600;DHT22;33323;52.124;6.018;2024-03-25T01:53:59;3.50;99.90
47600;DHT22;33323;52.124;6.018;2024-03-25T01:56:27;3.50;99.90
47600;DHT22;33323;52.124;6.018;2024-03-25T01:58:56;3.50;99.90
47600;DHT22;33323;52.124;6.018;2024-03-25T02:01:22;3.50;99.90
47600;DHT22;33323;52.124;6.018;2024-03-25T02:03:48;3.50;99.90
47600;DHT22;33323;52.124;6.018;2024-03-25T02:06:17;3.50;99.90
47600;DHT22;33323;52.124;6.018;2024-03-25T02:08:44;3.60;99.90
47600;DHT22;33323;52.124;6.018;2024-03-25T02:11:11;3.60;99.90
47600;DHT22;33323;52.124;6.018;2024-03-25T02:13:38;3.60;99.90
47600;DHT22;33323;52.124;6.018;2024-03-25T02:16:05;3.60;99.90
47600;DHT22;33323;52.124;6.018;2024-03-25T02:18:31;3.60;99.90
47600;DHT22;33323;52.124;6.018;2024-03-25T02:20:58;3.60;99.90
47600;DHT22;33323;52.124;6.018;2024-03-25T02:23:25;3.60;99.90
47600;DHT22;33323;52.124;6.018;2024-03-25T02:25:52;3.70;99.90
47600;DHT22;33323;52.124;6.018;2024-03-25T02:28:19;3.60;99.90
47600;DHT22;33323;52.124;6.018;2024-03-25T02:30:45;3.70;99.90
47600;DHT22;33323;52.124;6.018;2024-03-25T02:33:12;3.70;99.90
47600;DHT22;33323;52.124;6.018;2024-03-25T02:35:39;3.70;99.90
47600;DHT22;33323;52.124;6.018;2024-03-25T02:38:07;3.70;99.90
47600;DHT22;33323;52.124;6.018;2024-03-25T02:40:34;3.70;99.90
47600;DHT22;33323;52.124;6.018;2024-03-25T02:43:01;3.80;99.90
47600;DHT22;33323;52.124;6.018;2024-03-25T02:45:27;3.80;99.90
47600;DHT22;33323;52.124;6.018;2024-03-25T02:47:55;3.80;99.90
47600;DHT22;33323;52.124;6.018;2024-03-25T02:50:21;3.80;99.90
47600;DHT22;33323;52.124;6.018;2024-03-25T02:52:47;3.80;99.90
47600;DHT22;33323;52.124;6.018;2024-03-25T02:55:13;3.80;99.90
47600;DHT22;33323;52.124;6.018;2024-03-25T02:57:39;3.80;99.90
47600;DHT22;33323;52.124;6.018;2024-03-25T03:00:06;3.90;99.90
47600;DHT22;33323;52.124;6.018;2024-03-25T03:02:34;3.90;99.90
47600;DHT22;33323;52.124;6.018;2024-03-25T03:05:00;3.90;99.90
47600;DHT22;33323;52.124;6.018;2024-03-25T03:07:28;3.90;99.90
47600;DHT22;33323;52.124;6.018;2024-03-25T03:09:54;4.00;99.90
47600;DHT22;33323;52.124;6.018;2024-03-25T03:12:20;4.10;99.90
47600;DHT22;33323;52.124;6.018;2024-03-25T03:14:46;4.00;99.90
47600;DHT22;33323;52.124;6.018;2024-03-25T03:17:12;4.00;99.90
47600;DHT22;33323;52.124;6.018;2024-03-25T03:19:38;4.10;99.90
47600;DHT22;33323;52.124;6.018;2024-03-25T03:22:04;4.10;99.90
47600;DHT22;33323;52.124;6.018;2024-03-25T03:24:30;4.10;99.90
47600;DHT22;33323;52.124;6.018;2024-03-25T03:26:56;4.10;99.90
47600;DHT22;33323;52.124;6.018;2024-03-25T03:29:22;4.10;99.90
47600;DHT22;33323;52.124;6.018;2024-03-25T03:31:48;4.00;99.90
47600;DHT22;33323;52.124;6.018;2024-03-25T03:34:14;3.90;99.90
47600;DHT22;33323;52.124;6.018;2024-03-25T03:36:40;3.90;99.90
47600;DHT22;33323;52.124;6.018;2024-03-25T03:39:06;3.80;99.90
47600;DHT22;33323;52.124;6.018;2024-03-25T03:41:35;3.70;99.90
47600;DHT22;33323;52.124;6.018;2024-03-25T03:44:02;3.60;99.90
47600;DHT22;33323;52.124;6.018;2024-03-25T03:46:28;3.60;99.90
47600;DHT22;33323;52.124;6.018;2024-03-25T03:48:54;3.60;99.90
47600;DHT22;33323;52.124;6.018;2024-03-25T03:51:20;3.70;99.90
47600;DHT22;33323;52.124;6.018;2024-03-25T03:53:47;3.70;99.90
47600;DHT22;33323;52.124;6.018;2024-03-25T03:56:13;3.80;99.90
47600;DHT22;33323;52.124;6.018;2024-03-25T03:58:39;3.70;99.90
47600;DHT22;33323;52.124;6.018;2024-03-25T04:01:17;3.70;99.90
47600;DHT22;33323;52.124;6.018;2024-03-25T04:03:44;3.70;99.90
47600;DHT22;33323;52.124;6.018;2024-03-25T04:06:11;3.70;99.90
47600;DHT22;33323;52.124;6.018;2024-03-25T04:08:39;3.70;99.90
47600;DHT22;33323;52.124;6.018;2024-03-25T04:11:06;3.60;99.90
47600;DHT22;33323;52.124;6.018;2024-03-25T04:13:36;3.60;99.90
47600;DHT22;33323;52.124;6.018;2024-03-25T04:16:03;3.50;99.90
47600;DHT22;33323;52.124;6.018;2024-03-25T04:18:31;3.40;99.90
47600;DHT22;33323;52.124;6.018;2024-03-25T04:20:59;3.40;99.90
47600;DHT22;33323;52.124;6.018;2024-03-25T04:23:25;3.50;99.90
47600;DHT22;33323;52.124;6.018;2024-03-25T04:25:52;3.50;99.90
47600;DHT22;33323;52.124;6.018;2024-03-25T04:28:19;3.40;99.90
47600;DHT22;33323;52.124;6.018;2024-03-25T04:30:51;3.30;99.90
47600;DHT22;33323;52.124;6.018;2024-03-25T04:33:18;3.20;99.90
47600;DHT22;33323;52.124;6.018;2024-03-25T04:35:45;3.10;99.90
47600;DHT22;33323;52.124;6.018;2024-03-25T04:38:12;3.00;99.90
47600;DHT22;33323;52.124;6.018;2024-03-25T04:40:39;2.90;99.90
47600;DHT22;33323;52.124;6.018;2024-03-25T04:43:05;2.80;99.90
47600;DHT22;33323;52.124;6.018;2024-03-25T04:45:31;2.80;99.90
47600;DHT22;33323;52.124;6.018;2024-03-25T04:47:57;2.70;99.90
47600;DHT22;33323;52.124;6.018;2024-03-25T04:50:24;2.80;99.90
47600;DHT22;33323;52.124;6.018;2024-03-25T04:52:50;2.80;99.90
47600;DHT22;33323;52.124;6.018;2024-03-25T04:55:16;2.80;99.90
47600;DHT22;33323;52.124;6.018;2024-03-25T04:57:42;2.90;99.90
47600;DHT22;33323;52.124;6.018;2024-03-25T05:00:08;2.90;99.90
47600;DHT22;33323;52.124;6.018;2024-03-25T05:02:38;2.80;99.90
47600;DHT22;33323;52.124;6.018;2024-03-25T05:05:04;2.80;99.90
47600;DHT22;33323;52.124;6.018;2024-03-25T05:07:33;2.80;99.90
47600;DHT22;33323;52.124;6.018;2024-03-25T05:09:59;2.80;99.90
47600;DHT22;33323;52.124;6.018;2024-03-25T05:12:25;2.80;99.90
47600;DHT22;33323;52.124;6.018;2024-03-25T05:14:58;2.70;99.90
47600;DHT22;33323;52.124;6.018;2024-03-25T05:17:24;2.60;99.90
47600;DHT22;33323;52.124;6.018;2024-03-25T05:19:51;2.50;99.90
47600;DHT22;33323;52.124;6.018;2024-03-25T05:22:17;2.40;99.90
47600;DHT22;33323;52.124;6.018;2024-03-25T05:24:43;2.50;99.90
47600;DHT22;33323;52.124;6.018;2024-03-25T05:27:09;2.40;99.90
47600;DHT22;33323;52.124;6.018;2024-03-25T05:29:35;2.50;99.90
47600;DHT22;33323;52.124;6.018;2024-03-25T05:32:01;2.60;99.90
47600;DHT22;33323;52.124;6.018;2024-03-25T05:34:28;2.60;99.90
47600;DHT22;33323;52.124;6.018;2024-03-25T05:36:55;2.60;99.90
47600;DHT22;33323;52.124;6.018;2024-03-25T05:39:21;2.60;99.90
47600;DHT22;33323;52.124;6.018;2024-03-25T05:41:48;2.50;99.90
47600;DHT22;33323;52.124;6.018;2024-03-25T05:44:15;2.60;99.90
47600;DHT22;33323;52.124;6.018;2024-03-25T05:46:41;2.60;99.90
47600;DHT22;33323;52.124;6.018;2024-03-25T05:49:07;2.60;99.90
47600;DHT22;33323;52.124;6.018;2024-03-25T05:51:34;2.60;99.90
47600;DHT22;33323;52.124;6.018;2024-03-25T05:54:00;2.60;99.90
47600;DHT22;33323;52.124;6.018;2024-03-25T05:56:27;2.70;99.90
47600;DHT22;33323;52.124;6.018;2024-03-25T05:59:00;2.70;99.90
47600;DHT22;33323;52.124;6.018;2024-03-25T06:01:26;2.80;99.90
47600;DHT22;33323;52.124;6.018;2024-03-25T06:03:53;2.80;99.90
47600;DHT22;33323;52.124;6.018;2024-03-25T06:06:20;3.00;99.90
47600;DHT22;33323;52.124;6.018;2024-03-25T06:08:46;3.20;99.90
47600;DHT22;33323;52.124;6.018;2024-03-25T06:11:13;3.50;99.90
47600;DHT22;33323;52.124;6.018;2024-03-25T06:13:39;3.80;99.90
47600;DHT22;33323;52.124;6.018;2024-03-25T06:16:05;4.00;99.90
47600;DHT22;33323;52.124;6.018;2024-03-25T06:18:32;4.20;99.90
47600;DHT22;33323;52.124;6.018;2024-03-25T06:20:58;4.60;99.90
47600;DHT22;33323;52.124;6.018;2024-03-25T06:23:28;4.80;99.90
47600;DHT22;33323;52.124;6.018;2024-03-25T06:25:55;5.10;99.90
47600;DHT22;33323;52.124;6.018;2024-03-25T06:28:23;5.30;99.90
47600;DHT22;33323;52.124;6.018;2024-03-25T06:30:51;5.50;99.90
47600;DHT22;33323;52.124;6.018;2024-03-25T06:33:36;5.50;99.90
47600;DHT22;33323;52.124;6.018;2024-03-25T06:36:21;5.50;99.90
47600;DHT22;33323;52.124;6.018;2024-03-25T06:38:47;5.40;99.90
47600;DHT22;33323;52.124;6.018;2024-03-25T06:41:14;5.20;99.90
47600;DHT22;33323;52.124;6.018;2024-03-25T06:43:40;5.20;99.90
47600;DHT22;33323;52.124;6.018;2024-03-25T06:46:07;5.10;99.90
47600;DHT22;33323;52.124;6.018;2024-03-25T06:48:34;5.10;99.90
47600;DHT22;33323;52.124;6.018;2024-03-25T06:51:01;5.30;99.90
47600;DHT22;33323;52.124;6.018;2024-03-25T06:53:30;5.20;99.90
47600;DHT22;33323;52.124;6.018;2024-03-25T06:55:57;5.30;99.90
47600;DHT22;33323;52.124;6.018;2024-03-25T06:58:25;5.30;99.90
47600;DHT22;33323;52.124;6.018;2024-03-25T07:00:53;5.30;99.90
47600;DHT22;33323;52.124;6.018;2024-03-25T07:03:21;5.30;99.90
47600;DHT22;33323;52.124;6.018;2024-03-25T07:05:49;5.30;99.90
47600;DHT22;33323;52.124;6.018;2024-03-25T07:08:21;5.30;99.90
47600;DHT22;33323;52.124;6.018;2024-03-25T07:10:47;5.30;99.90
47600;DHT22;33323;52.124;6.018;2024-03-25T07:13:14;5.30;99.90
47600;DHT22;33323;52.124;6.018;2024-03-25T07:15:40;5.30;99.90
47600;DHT22;33323;52.124;6.018;2024-03-25T07:18:06;5.30;99.90
47600;DHT22;33323;52.124;6.018;2024-03-25T07:20:33;5.40;99.90
47600;DHT22;33323;52.124;6.018;2024-03-25T07:22:59;5.40;99.90
47600;DHT22;33323;52.124;6.018;2024-03-25T07:25:25;5.60;99.90
47600;DHT22;33323;52.124;6.018;2024-03-25T07:27:52;5.90;99.90
47600;DHT22;33323;52.124;6.018;2024-03-25T07:30:19;6.10;99.90
47600;DHT22;33323;52.124;6.018;2024-03-25T07:32:45;6.40;99.90
47600;DHT22;33323;52.124;6.018;2024-03-25T07:35:11;6.60;99.90
47600;DHT22;33323;52.124;6.018;2024-03-25T07:37:38;6.90;99.90
47600;DHT22;33323;52.124;6.018;2024-03-25T07:40:07;7.00;99.90
47600;DHT22;33323;52.124;6.018;2024-03-25T07:42:35;7.10;99.90
47600;DHT22;33323;52.124;6.018;2024-03-25T07:45:02;7.30;99.90
47600;DHT22;33323;52.124;6.018;2024-03-25T07:47:28;7.50;99.90
47600;DHT22;33323;52.124;6.018;2024-03-25T07:49:54;7.50;99.90
47600;DHT22;33323;52.124;6.018;2024-03-25T07:52:21;7.30;99.90
47600;DHT22;33323;52.124;6.018;2024-03-25T07:54:48;7.10;99.90
47600;DHT22;33323;52.124;6.018;2024-03-25T07:57:15;7.00;99.90
47600;DHT22;33323;52.124;6.018;2024-03-25T07:59:42;7.10;99.90
47600;DHT22;33323;52.124;6.018;2024-03-25T08:02:09;7.20;99.90
47600;DHT22;33323;52.124;6.018;2024-03-25T08:04:36;7.30;99.90
47600;DHT22;33323;52.124;6.018;2024-03-25T08:07:02;7.30;99.90
47600;DHT22;33323;52.124;6.018;2024-03-25T08:09:29;7.20;99.90
47600;DHT22;33323;52.124;6.018;2024-03-25T08:11:56;7.20;99.90
47600;DHT22;33323;52.124;6.018;2024-03-25T08:14:23;7.30;99.90
47600;DHT22;33323;52.124;6.018;2024-03-25T08:16:50;7.30;99.90
47600;DHT22;33323;52.124;6.018;2024-03-25T08:19:20;7.40;99.90
47600;DHT22;33323;52.124;6.018;2024-03-25T08:21:50;7.50;99.90
47600;DHT22;33323;52.124;6.018;2024-03-25T08:24:16;7.50;99.90
47600;DHT22;33323;52.124;6.018;2024-03-25T08:26:46;7.70;99.90
47600;DHT22;33323;52.124;6.018;2024-03-25T08:29:12;7.70;99.90
47600;DHT22;33323;52.124;6.018;2024-03-25T08:31:39;7.90;99.90
47600;DHT22;33323;52.124;6.018;2024-03-25T08:34:06;8.10;99.90
47600;DHT22;33323;52.124;6.018;2024-03-25T08:36:33;8.30;99.90
47600;DHT22;33323;52.124;6.018;2024-03-25T08:39:00;8.60;99.90
47600;DHT22;33323;52.124;6.018;2024-03-25T08:41:26;8.60;99.90
47600;DHT22;33323;52.124;6.018;2024-03-25T08:43:53;8.60;99.90
47600;DHT22;33323;52.124;6.018;2024-03-25T08:46:20;8.60;99.90
47600;DHT22;33323;52.124;6.018;2024-03-25T08:48:46;8.30;99.90
47600;DHT22;33323;52.124;6.018;2024-03-25T08:51:12;8.20;99.90
47600;DHT22;33323;52.124;6.018;2024-03-25T08:53:38;8.10;99.90
47600;DHT22;33323;52.124;6.018;2024-03-25T08:56:05;8.20;99.90
47600;DHT22;33323;52.124;6.018;2024-03-25T08:58:32;8.30;99.90
47600;DHT22;33323;52.124;6.018;2024-03-25T09:01:01;8.70;99.90
47600;DHT22;33323;52.124;6.018;2024-03-25T09:03:28;9.20;99.90
47600;DHT22;33323;52.124;6.018;2024-03-25T09:05:56;9.70;99.90
47600;DHT22;33323;52.124;6.018;2024-03-25T09:08:23;10.10;99.90
47600;DHT22;33323;52.124;6.018;2024-03-25T09:10:49;10.40;99.90
47600;DHT22;33323;52.124;6.018;2024-03-25T09:13:33;10.80;99.90
47600;DHT22;33323;52.124;6.018;2024-03-25T09:15:59;11.40;99.90
47600;DHT22;33323;52.124;6.018;2024-03-25T09:18:26;11.80;99.90
47600;DHT22;33323;52.124;6.018;2024-03-25T09:20:54;12.00;99.90
47600;DHT22;33323;52.124;6.018;2024-03-25T09:23:21;12.50;99.90
47600;DHT22;33323;52.124;6.018;2024-03-25T09:25:52;12.90;99.90
47600;DHT22;33323;52.124;6.018;2024-03-25T09:28:20;12.50;99.90
47600;DHT22;33323;52.124;6.018;2024-03-25T09:30:47;12.00;99.90
47600;DHT22;33323;52.124;6.018;2024-03-25T09:33:16;11.90;99.90
47600;DHT22;33323;52.124;6.018;2024-03-25T09:35:42;11.60;99.90
47600;DHT22;33323;52.124;6.018;2024-03-25T09:38:09;11.30;99.90
47600;DHT22;33323;52.124;6.018;2024-03-25T09:40:40;10.70;99.90
47600;DHT22;33323;52.124;6.018;2024-03-25T09:43:33;10.30;99.90
47600;DHT22;33323;52.124;6.018;2024-03-25T09:46:05;10.30;99.90
47600;DHT22;33323;52.124;6.018;2024-03-25T09:48:36;10.70;99.90
47600;DHT22;33323;52.124;6.018;2024-03-25T09:51:04;10.90;99.90
47600;DHT22;33323;52.124;6.018;2024-03-25T09:53:31;10.80;99.90
47600;DHT22;33323;52.124;6.018;2024-03-25T09:55:58;10.70;99.90
47600;DHT22;33323;52.124;6.018;2024-03-25T09:58:25;10.80;99.90
47600;DHT22;33323;52.124;6.018;2024-03-25T10:00:53;11.40;99.90
47600;DHT22;33323;52.124;6.018;2024-03-25T10:03:21;11.60;99.90
47600;DHT22;33323;52.124;6.018;2024-03-25T10:05:47;11.30;99.90
47600;DHT22;33323;52.124;6.018;2024-03-25T10:08:13;11.30;99.90
47600;DHT22;33323;52.124;6.018;2024-03-25T10:10:39;11.70;99.90
47600;DHT22;33323;52.124;6.018;2024-03-25T10:13:05;12.10;99.90
47600;DHT22;33323;52.124;6.018;2024-03-25T10:15:32;12.40;99.90
47600;DHT22;33323;52.124;6.018;2024-03-25T10:17:59;12.40;99.90
47600;DHT22;33323;52.124;6.018;2024-03-25T10:20:25;11.90;99.90
47600;DHT22;33323;52.124;6.018;2024-03-25T10:22:51;11.90;99.90
47600;DHT22;33323;52.124;6.018;2024-03-25T10:25:26;11.70;99.90
47600;DHT22;33323;52.124;6.018;2024-03-25T10:27:54;12.30;99.90
47600;DHT22;33323;52.124;6.018;2024-03-25T10:30:23;12.60;99.90
47600;DHT22;33323;52.124;6.018;2024-03-25T10:33:05;12.00;99.90
47600;DHT22;33323;52.124;6.018;2024-03-25T10:35:36;11.90;99.90
47600;DHT22;33323;52.124;6.018;2024-03-25T10:38:07;12.50;99.90
47600;DHT22;33323;52.124;6.018;2024-03-25T10:40:39;13.00;99.90
47600;DHT22;33323;52.124;6.018;2024-03-25T10:43:10;13.40;99.90
47600;DHT22;33323;52.124;6.018;2024-03-25T10:45:45;13.20;99.90
47600;DHT22;33323;52.124;6.018;2024-03-25T10:48:35;13.30;99.90
47600;DHT22;33323;52.124;6.018;2024-03-25T10:51:05;13.40;99.90
47600;DHT22;33323;52.124;6.018;2024-03-25T10:53:36;13.00;99.90
47600;DHT22;33323;52.124;6.018;2024-03-25T10:56:05;12.50;99.90
47600;DHT22;33323;52.124;6.018;2024-03-25T10:58:33;12.10;99.90
47600;DHT22;33323;52.124;6.018;2024-03-25T11:01:00;11.80;99.90
47600;DHT22;33323;52.124;6.018;2024-03-25T11:03:28;11.90;99.90
47600;DHT22;33323;52.124;6.018;2024-03-25T11:05:54;12.20;99.90
47600;DHT22;33323;52.124;6.018;2024-03-25T11:08:30;12.10;99.90
47600;DHT22;33323;52.124;6.018;2024-03-25T11:10:58;12.10;99.90
47600;DHT22;33323;52.124;6.018;2024-03-25T11:13:27;12.10;99.90
47600;DHT22;33323;52.124;6.018;2024-03-25T11:15:55;12.10;99.90
47600;DHT22;33323;52.124;6.018;2024-03-25T11:18:24;12.50;99.90
47600;DHT22;33323;52.124;6.018;2024-03-25T11:21:05;13.00;99.90
47600;DHT22;33323;52.124;6.018;2024-03-25T11:23:40;13.30;99.90
47600;DHT22;33323;52.124;6.018;2024-03-25T11:26:25;13.40;99.90
47600;DHT22;33323;52.124;6.018;2024-03-25T11:28:56;13.70;99.90
47600;DHT22;33323;52.124;6.018;2024-03-25T11:31:25;14.00;99.90
47600;DHT22;33323;52.124;6.018;2024-03-25T11:33:52;14.10;99.90
47600;DHT22;33323;52.124;6.018;2024-03-25T11:36:21;14.40;99.90
47600;DHT22;33323;52.124;6.018;2024-03-25T11:39:01;14.50;99.90
47600;DHT22;33323;52.124;6.018;2024-03-25T11:41:33;15.10;99.90
47600;DHT22;33323;52.124;6.018;2024-03-25T11:43:59;15.30;99.90
47600;DHT22;33323;52.124;6.018;2024-03-25T11:46:26;14.30;99.90
47600;DHT22;33323;52.124;6.018;2024-03-25T11:48:53;14.40;99.90
47600;DHT22;33323;52.124;6.018;2024-03-25T11:51:20;14.10;99.90
47600;DHT22;33323;52.124;6.018;2024-03-25T11:53:46;13.90;99.90
47600;DHT22;33323;52.124;6.018;2024-03-25T11:56:12;13.80;99.90
47600;DHT22;33323;52.124;6.018;2024-03-25T11:58:39;13.60;99.90
47600;DHT22;33323;52.124;6.018;2024-03-25T12:01:51;13.50;99.90
47600;DHT22;33323;52.124;6.018;2024-03-25T12:04:18;13.50;99.90
47600;DHT22;33323;52.124;6.018;2024-03-25T12:06:45;13.60;99.90
47600;DHT22;33323;52.124;6.018;2024-03-25T12:09:11;13.70;99.90
47600;DHT22;33323;52.124;6.018;2024-03-25T12:11:56;13.70;99.90
47600;DHT22;33323;52.124;6.018;2024-03-25T12:14:23;14.00;99.90
47600;DHT22;33323;52.124;6.018;2024-03-25T12:16:53;14.70;99.90
47600;DHT22;33323;52.124;6.018;2024-03-25T12:19:20;15.10;99.90
47600;DHT22;33323;52.124;6.018;2024-03-25T12:21:47;15.40;99.90
47600;DHT22;33323;52.124;6.018;2024-03-25T12:24:13;15.40;99.90
47600;DHT22;33323;52.124;6.018;2024-03-25T12:26:42;15.60;99.90
47600;DHT22;33323;52.124;6.018;2024-03-25T12:29:08;15.50;99.90
47600;DHT22;33323;52.124;6.018;2024-03-25T12:31:34;15.40;99.90
47600;DHT22;33323;52.124;6.018;2024-03-25T12:34:01;14.90;99.90
47600;DHT22;33323;52.124;6.018;2024-03-25T12:36:27;14.10;99.90
47600;DHT22;33323;52.124;6.018;2024-03-25T12:38:56;14.00;99.90
47600;DHT22;33323;52.124;6.018;2024-03-25T12:41:23;14.50;99.90
47600;DHT22;33323;52.124;6.018;2024-03-25T12:43:50;14.80;99.90
47600;DHT22;33323;52.124;6.018;2024-03-25T12:46:17;14.90;99.90
47600;DHT22;33323;52.124;6.018;2024-03-25T12:48:43;14.90;99.90
47600;DHT22;33323;52.124;6.018;2024-03-25T12:51:16;14.80;99.90
47600;DHT22;33323;52.124;6.018;2024-03-25T12:53:42;15.00;99.90
47600;DHT22;33323;52.124;6.018;2024-03-25T12:56:08;15.10;99.90
47600;DHT22;33323;52.124;6.018;2024-03-25T12:58:34;14.60;99.90
47600;DHT22;33323;52.124;6.018;2024-03-25T13:01:00;14.90;99.90
47600;DHT22;33323;52.124;6.018;2024-03-25T13:03:27;15.00;99.90
47600;DHT22;33323;52.124;6.018;2024-03-25T13:05:53;14.50;99.90
47600;DHT22;33323;52.124;6.018;2024-03-25T13:08:24;14.60;99.90
47600;DHT22;33323;52.124;6.018;2024-03-25T13:10:51;14.10;99.90
47600;DHT22;33323;52.124;6.018;2024-03-25T13:13:18;14.50;99.90
47600;DHT22;33323;52.124;6.018;2024-03-25T13:15:46;14.10;99.90
47600;DHT22;33323;52.124;6.018;2024-03-25T13:18:12;14.00;99.90
47600;DHT22;33323;52.124;6.018;2024-03-25T13:20:38;14.30;99.90
47600;DHT22;33323;52.124;6.018;2024-03-25T13:23:05;14.80;99.90
47600;DHT22;33323;52.124;6.018;2024-03-25T13:25:31;15.10;99.90
47600;DHT22;33323;52.124;6.018;2024-03-25T13:27:58;15.10;99.90
47600;DHT22;33323;52.124;6.018;2024-03-25T13:30:24;15.40;99.90
47600;DHT22;33323;52.124;6.018;2024-03-25T13:32:52;15.00;99.90
47600;DHT22;33323;52.124;6.018;2024-03-25T13:35:18;14.60;99.90
47600;DHT22;33323;52.124;6.018;2024-03-25T13:37:44;14.60;99.90
47600;DHT22;33323;52.124;6.018;2024-03-25T13:40:10;14.70;99.90
47600;DHT22;33323;52.124;6.018;2024-03-25T13:42:40;14.30;99.90
47600;DHT22;33323;52.124;6.018;2024-03-25T13:45:06;13.60;99.90
47600;DHT22;33323;52.124;6.018;2024-03-25T13:47:33;13.10;99.90
47600;DHT22;33323;52.124;6.018;2024-03-25T13:50:06;13.10;99.90
47600;DHT22;33323;52.124;6.018;2024-03-25T13:52:34;12.80;99.90
47600;DHT22;33323;52.124;6.018;2024-03-25T13:55:01;12.10;99.90
47600;DHT22;33323;52.124;6.018;2024-03-25T13:57:29;12.20;99.90
47600;DHT22;33323;52.124;6.018;2024-03-25T13:59:56;12.10;99.90
47600;DHT22;33323;52.124;6.018;2024-03-25T14:02:23;11.90;99.90
47600;DHT22;33323;52.124;6.018;2024-03-25T14:04:50;11.90;99.90
47600;DHT22;33323;52.124;6.018;2024-03-25T14:07:16;12.00;99.90
47600;DHT22;33323;52.124;6.018;2024-03-25T14:09:44;12.20;99.90
47600;DHT22;33323;52.124;6.018;2024-03-25T14:12:10;12.40;99.90
47600;DHT22;33323;52.124;6.018;2024-03-25T14:14:37;12.70;99.90
47600;DHT22;33323;52.124;6.018;2024-03-25T14:17:04;12.80;99.90
47600;DHT22;33323;52.124;6.018;2024-03-25T14:19:32;12.70;99.90
47600;DHT22;33323;52.124;6.018;2024-03-25T14:21:58;12.70;99.90
47600;DHT22;33323;52.124;6.018;2024-03-25T14:24:24;13.10;99.90
47600;DHT22;33323;52.124;6.018;2024-03-25T14:26:51;13.20;99.90
47600;DHT22;33323;52.124;6.018;2024-03-25T14:29:17;13.10;99.90
47600;DHT22;33323;52.124;6.018;2024-03-25T14:31:44;13.50;99.90
47600;DHT22;33323;52.124;6.018;2024-03-25T14:34:11;13.80;99.90
47600;DHT22;33323;52.124;6.018;2024-03-25T14:36:37;14.00;99.90
47600;DHT22;33323;52.124;6.018;2024-03-25T14:39:04;13.90;99.90
47600;DHT22;33323;52.124;6.018;2024-03-25T14:41:40;13.90;99.90
47600;DHT22;33323;52.124;6.018;2024-03-25T14:44:10;13.80;99.90
47600;DHT22;33323;52.124;6.018;2024-03-25T14:46:36;14.10;99.90
47600;DHT22;33323;52.124;6.018;2024-03-25T14:49:02;14.20;99.90
47600;DHT22;33323;52.124;6.018;2024-03-25T14:51:29;14.10;99.90
47600;DHT22;33323;52.124;6.018;2024-03-25T14:53:55;14.10;99.90
47600;DHT22;33323;52.124;6.018;2024-03-25T14:56:22;14.00;99.90
47600;DHT22;33323;52.124;6.018;2024-03-25T14:58:49;13.60;99.90
47600;DHT22;33323;52.124;6.018;2024-03-25T15:01:15;13.50;99.90
47600;DHT22;33323;52.124;6.018;2024-03-25T15:03:42;13.10;99.90
47600;DHT22;33323;52.124;6.018;2024-03-25T15:06:08;13.00;99.90
47600;DHT22;33323;52.124;6.018;2024-03-25T15:08:35;12.60;99.90
47600;DHT22;33323;52.124;6.018;2024-03-25T15:11:03;13.00;99.90
47600;DHT22;33323;52.124;6.018;2024-03-25T15:13:30;12.80;99.90
47600;DHT22;33323;52.124;6.018;2024-03-25T15:15:57;12.70;99.90
47600;DHT22;33323;52.124;6.018;2024-03-25T15:18:24;12.70;99.90
47600;DHT22;33323;52.124;6.018;2024-03-25T15:21:03;12.90;99.90
47600;DHT22;33323;52.124;6.018;2024-03-25T15:23:30;13.10;99.90
47600;DHT22;33323;52.124;6.018;2024-03-25T15:25:58;13.00;99.90
47600;DHT22;33323;52.124;6.018;2024-03-25T15:28:25;13.00;99.90
47600;DHT22;33323;52.124;6.018;2024-03-25T15:30:57;13.20;99.90
47600;DHT22;33323;52.124;6.018;2024-03-25T15:33:24;13.30;99.90
47600;DHT22;33323;52.124;6.018;2024-03-25T15:35:51;13.00;99.90
47600;DHT22;33323;52.124;6.018;2024-03-25T15:38:17;12.70;99.90
47600;DHT22;33323;52.124;6.018;2024-03-25T15:40:44;12.30;99.90
47600;DHT22;33323;52.124;6.018;2024-03-25T15:43:17;11.90;99.90